createdAt,value
2022-10-26T00:02:16.980Z,81.00
2022-10-26T00:05:05.863Z,81.10
2022-10-26T00:07:54.223Z,82.20
2022-10-26T00:10:42.438Z,81.30
2022-10-26T00:13:30.588Z,80.80
2022-10-26T00:16:23.658Z,81.10
2022-10-26T00:19:13.266Z,81.90
2022-10-26T00:22:02.384Z,81.30
2022-10-26T00:24:50.470Z,82.00
2022-10-26T00:27:38.790Z,82.10
2022-10-26T00:30:27.031Z,81.40
2022-10-26T00:33:16.633Z,81.30
2022-10-26T00:36:05.549Z,81.70
2022-10-26T00:38:56.751Z,82.80
2022-10-26T00:41:45.212Z,82.50
2022-10-26T00:45:04.667Z,81.50
2022-10-26T00:47:58.741Z,83.70
2022-10-26T00:50:49.902Z,82.90
2022-10-26T00:53:38.865Z,82.70
2022-10-26T00:56:27.382Z,82.70
2022-10-26T00:59:17.911Z,81.90
2022-10-26T01:02:06.039Z,82.50
2022-10-26T01:04:55.694Z,81.40
2022-10-26T01:07:48.372Z,82.20
2022-10-26T01:10:38.076Z,81.60
2022-10-26T01:13:27.786Z,82.30
2022-10-26T01:16:40.801Z,82.20
2022-10-26T01:20:21.000Z,83.30
2022-10-26T01:23:23.464Z,83.00
2022-10-26T01:26:34.540Z,83.50
2022-10-26T01:29:53.565Z,83.40
2022-10-26T01:32:53.682Z,83.70
2022-10-26T01:35:52.236Z,83.50
2022-10-26T01:38:53.562Z,82.70
2022-10-26T01:41:49.155Z,83.20
2022-10-26T01:44:43.098Z,83.10
2022-10-26T01:47:34.797Z,82.70
2022-10-26T01:50:26.314Z,82.50
2022-10-26T01:53:15.906Z,82.80
2022-10-26T01:56:04.648Z,83.80
2022-10-26T01:59:21.411Z,82.60
2022-10-26T02:02:45.718Z,84.10
2022-10-26T02:05:49.518Z,83.60
2022-10-26T02:08:58.826Z,83.90
2022-10-26T02:11:50.344Z,84.00
2022-10-26T02:14:48.379Z,83.40
2022-10-26T02:17:48.278Z,83.30
2022-10-26T02:20:43.489Z,84.20
2022-10-26T02:23:34.931Z,84.10
2022-10-26T02:26:28.045Z,83.30
2022-10-26T02:29:20.194Z,84.10
2022-10-26T02:32:10.151Z,84.40
2022-10-26T02:35:01.522Z,84.30
2022-10-26T02:37:54.248Z,84.30
2022-10-26T02:40:43.732Z,83.90
2022-10-26T02:43:38.239Z,84.10
2022-10-26T02:46:29.074Z,83.60
2022-10-26T02:49:17.409Z,83.60
2022-10-26T02:52:12.193Z,82.60
2022-10-26T02:55:09.293Z,83.60
2022-10-26T02:58:02.653Z,84.50
2022-10-26T03:00:52.398Z,84.50
2022-10-26T03:03:40.548Z,84.00
2022-10-26T03:06:28.758Z,83.60
2022-10-26T03:09:16.891Z,83.60
2022-10-26T03:12:07.259Z,83.70
2022-10-26T03:14:55.231Z,84.40
2022-10-26T03:17:43.820Z,83.10
2022-10-26T03:20:32.375Z,83.20
2022-10-26T03:23:20.995Z,84.10
2022-10-26T03:26:08.788Z,83.90
2022-10-26T03:28:58.489Z,83.70
2022-10-26T03:31:46.628Z,83.90
2022-10-26T03:34:35.021Z,84.10
2022-10-26T03:37:23.232Z,84.00
2022-10-26T03:40:12.864Z,84.00
2022-10-26T03:43:01.139Z,84.80
2022-10-26T03:45:51.360Z,83.90
2022-10-26T03:48:39.610Z,84.60
2022-10-26T03:51:28.252Z,84.10
2022-10-26T03:54:16.414Z,84.30
2022-10-26T03:57:04.941Z,84.10
2022-10-26T03:59:53.267Z,84.40
2022-10-26T04:02:43.348Z,84.60
2022-10-26T04:05:32.168Z,84.40
2022-10-26T04:08:20.123Z,84.30
2022-10-26T04:11:07.999Z,84.20
2022-10-26T04:13:59.692Z,84.30
2022-10-26T04:16:47.937Z,84.00
2022-10-26T04:19:37.548Z,84.00
2022-10-26T04:22:25.935Z,83.70
2022-10-26T04:25:14.487Z,83.60
2022-10-26T04:28:03.805Z,83.70
2022-10-26T04:30:52.551Z,84.60
2022-10-26T04:33:40.702Z,84.30
2022-10-26T04:36:30.071Z,84.30
2022-10-26T04:39:18.228Z,84.40
2022-10-26T04:42:06.415Z,84.40
2022-10-26T04:44:54.495Z,84.70
2022-10-26T04:47:42.781Z,84.50
2022-10-26T04:50:30.759Z,84.90
2022-10-26T04:53:20.433Z,84.40
2022-10-26T04:56:08.903Z,83.90
2022-10-26T04:58:57.579Z,84.40
2022-10-26T05:01:45.521Z,84.50
2022-10-26T05:04:33.712Z,84.30
2022-10-26T05:07:21.811Z,84.50
2022-10-26T05:10:13.053Z,84.80
2022-10-26T05:13:02.360Z,85.20
2022-10-26T05:15:50.427Z,85.30
2022-10-26T05:18:38.527Z,84.70
2022-10-26T05:21:26.659Z,84.40
2022-10-26T05:24:14.661Z,84.30
2022-10-26T05:27:05.085Z,84.30
2022-10-26T05:29:53.460Z,84.90
2022-10-26T05:32:41.539Z,84.50
2022-10-26T05:35:29.780Z,84.30
2022-10-26T05:38:19.125Z,84.10
2022-10-26T05:41:07.646Z,84.40
2022-10-26T05:43:56.719Z,84.20
2022-10-26T05:46:44.837Z,85.60
2022-10-26T05:49:33.282Z,84.40
2022-10-26T05:52:21.823Z,84.00
2022-10-26T05:55:11.256Z,85.10
2022-10-26T05:58:00.550Z,85.10
2022-10-26T06:01:09.050Z,84.70
2022-10-26T06:04:14.239Z,86.00
2022-10-26T06:06:47.852Z,86.20
2022-10-26T06:09:18.618Z,85.40
2022-10-26T06:14:20.700Z,85.70
2022-10-26T06:17:12.296Z,85.70
2022-10-26T06:19:59.684Z,86.40
2022-10-26T06:22:44.233Z,85.70
2022-10-26T06:25:27.453Z,85.60
2022-10-26T06:28:13.081Z,85.50
2022-10-26T06:30:43.997Z,85.70
2022-10-26T06:33:28.807Z,85.00
2022-10-26T06:36:14.772Z,85.10
2022-10-26T06:38:46.467Z,85.80
2022-10-26T06:41:19.182Z,85.00
2022-10-26T06:43:50.486Z,85.00
2022-10-26T06:46:34.099Z,85.00
2022-10-26T06:49:16.044Z,85.30
2022-10-26T06:51:53.065Z,85.60
2022-10-26T06:54:27.462Z,85.20
2022-10-26T06:56:59.059Z,85.20
2022-10-26T06:59:39.276Z,85.70
2022-10-26T07:02:10.616Z,85.90
2022-10-26T07:04:42.039Z,85.80
2022-10-26T07:07:13.403Z,85.00
2022-10-26T07:09:43.402Z,86.30
2022-10-26T07:12:13.491Z,85.20
2022-10-26T07:14:43.209Z,85.70
2022-10-26T07:17:13.041Z,85.20
2022-10-26T07:19:45.139Z,86.00
2022-10-26T07:22:14.851Z,85.60
2022-10-26T07:24:44.494Z,85.00
2022-10-26T07:27:14.082Z,85.00
2022-10-26T07:29:43.995Z,85.00
2022-10-26T07:32:13.916Z,85.20
2022-10-26T07:34:45.083Z,85.10
2022-10-26T07:37:14.688Z,85.50
2022-10-26T07:39:44.130Z,85.10
2022-10-26T07:42:13.609Z,85.20
2022-10-26T07:44:43.307Z,85.60
2022-10-26T07:47:13.003Z,85.50
2022-10-26T07:49:42.701Z,85.60
2022-10-26T07:52:14.031Z,85.30
2022-10-26T07:54:43.703Z,85.70
2022-10-26T07:57:13.332Z,85.20
2022-10-26T07:59:43.030Z,85.60
2022-10-26T08:02:12.833Z,85.60
2022-10-26T08:04:42.820Z,86.20
2022-10-26T08:07:14.073Z,85.90
2022-10-26T08:09:44.625Z,86.20
2022-10-26T08:12:16.675Z,86.00
2022-10-26T08:14:47.397Z,86.30
2022-10-26T08:17:17.299Z,86.60
2022-10-26T08:19:50.315Z,86.60
2022-10-26T08:22:21.424Z,87.20
2022-10-26T08:24:51.238Z,86.60
2022-10-26T08:27:20.841Z,87.40
2022-10-26T08:29:50.484Z,86.60
2022-10-26T08:32:20.218Z,86.60
2022-10-26T08:34:49.826Z,86.90
2022-10-26T08:37:20.867Z,86.70
2022-10-26T08:39:53.546Z,88.60
2022-10-26T08:42:29.872Z,87.20
2022-10-26T08:45:05.743Z,88.30
2022-10-26T08:47:43.300Z,88.30
2022-10-26T08:50:20.806Z,88.50
2022-10-26T08:53:02.205Z,88.40
2022-10-26T08:55:40.764Z,88.70
2022-10-26T08:58:16.966Z,89.00
2022-10-26T09:00:48.828Z,88.90
2022-10-26T09:03:19.961Z,89.20
2022-10-26T09:06:06.697Z,89.60
2022-10-26T09:08:49.050Z,90.00
2022-10-26T09:11:31.508Z,90.50
2022-10-26T09:14:12.806Z,90.50
2022-10-26T09:16:52.892Z,90.60
2022-10-26T09:19:45.401Z,90.80
2022-10-26T09:22:23.038Z,90.60
2022-10-26T09:24:56.609Z,90.30
2022-10-26T09:27:29.598Z,90.10
2022-10-26T09:30:02.106Z,89.80
2022-10-26T09:32:37.380Z,89.50
2022-10-26T09:35:15.490Z,89.30
2022-10-26T09:37:51.496Z,89.40
2022-10-26T09:40:29.456Z,89.30
2022-10-26T09:43:03.415Z,89.20
2022-10-26T09:45:36.913Z,89.30
2022-10-26T09:48:13.855Z,89.00
2022-10-26T09:50:47.669Z,89.20
2022-10-26T09:53:16.841Z,88.90
2022-10-26T09:55:50.723Z,89.10
2022-10-26T09:58:25.369Z,89.10
2022-10-26T10:00:55.060Z,89.10
2022-10-26T10:03:30.526Z,89.50
2022-10-26T10:06:18.358Z,88.80
2022-10-26T10:09:10.993Z,87.60
2022-10-26T10:11:42.998Z,87.50
2022-10-26T10:14:18.462Z,88.40
2022-10-26T10:16:56.130Z,88.30
2022-10-26T10:19:28.548Z,87.70
2022-10-26T10:22:00.133Z,88.10
2022-10-26T10:24:32.078Z,88.40
2022-10-26T10:27:05.804Z,88.20
2022-10-26T10:29:41.771Z,87.40
2022-10-26T10:32:17.173Z,87.00
2022-10-26T10:34:46.514Z,86.00
2022-10-26T10:37:26.466Z,86.80
2022-10-26T10:39:59.568Z,85.10
2022-10-26T10:42:34.457Z,84.60
2022-10-26T10:45:05.576Z,84.30
2022-10-26T10:47:37.275Z,84.10
2022-10-26T10:50:17.014Z,84.00
2022-10-26T10:52:46.819Z,83.50
2022-10-26T10:55:21.221Z,83.90
2022-10-26T10:58:09.259Z,83.80
2022-10-26T11:00:39.385Z,83.50
2022-10-26T11:03:35.302Z,83.40
2022-10-26T11:06:17.136Z,82.90
2022-10-26T11:08:51.594Z,82.90
2022-10-26T11:11:26.628Z,84.00
2022-10-26T11:14:03.677Z,83.20
2022-10-26T11:16:37.538Z,83.60
2022-10-26T11:19:20.998Z,83.70
2022-10-26T11:21:54.870Z,83.80
2022-10-26T11:24:29.740Z,83.70
2022-10-26T11:27:05.154Z,83.70
2022-10-26T11:29:48.612Z,84.20
2022-10-26T11:32:24.057Z,84.50
2022-10-26T11:35:01.447Z,85.20
2022-10-26T11:40:24.652Z,85.10
2022-10-26T11:43:04.919Z,85.40
2022-10-26T11:45:40.621Z,85.00
2022-10-26T11:48:18.418Z,85.20
2022-10-26T11:50:52.475Z,84.20
2022-10-26T11:53:27.378Z,83.40
2022-10-26T11:55:57.750Z,82.70
2022-10-26T11:58:29.136Z,81.90
2022-10-26T12:01:05.552Z,81.40
2022-10-26T12:03:40.384Z,81.00
2022-10-26T12:06:09.465Z,80.50
2022-10-26T12:08:42.452Z,80.50
2022-10-26T12:11:23.354Z,80.50
2022-10-26T12:13:57.952Z,80.10
2022-10-26T12:16:42.392Z,80.00
2022-10-26T12:19:18.278Z,80.10
2022-10-26T12:21:48.734Z,80.30
2022-10-26T12:24:35.621Z,80.60
2022-10-26T12:27:06.903Z,80.00
2022-10-26T12:29:49.306Z,80.00
2022-10-26T12:32:54.515Z,79.70
2022-10-26T12:35:45.128Z,79.70
2022-10-26T12:39:02.186Z,79.80
2022-10-26T12:41:33.247Z,80.40
2022-10-26T12:44:37.774Z,80.30
2022-10-26T12:47:07.576Z,79.80
2022-10-26T12:50:02.069Z,80.10
2022-10-26T12:52:54.025Z,80.20
2022-10-26T12:56:05.215Z,80.10
2022-10-26T12:59:18.182Z,79.60
2022-10-26T13:02:38.750Z,80.00
2022-10-26T13:05:33.717Z,79.80
2022-10-26T13:08:04.918Z,80.00
2022-10-26T13:10:34.404Z,79.70
2022-10-26T13:13:06.850Z,79.70
2022-10-26T13:15:41.233Z,79.50
2022-10-26T13:18:16.900Z,79.90
2022-10-26T13:21:13.525Z,80.10
2022-10-26T13:23:46.799Z,80.30
2022-10-26T13:26:18.389Z,80.50
2022-10-26T13:28:51.802Z,80.40
2022-10-26T13:31:55.832Z,79.70
2022-10-26T13:34:28.910Z,79.90
2022-10-26T13:37:13.492Z,79.70
2022-10-26T13:39:45.455Z,79.80
2022-10-26T13:42:20.052Z,80.10
2022-10-26T13:44:55.142Z,80.20
2022-10-26T13:47:30.047Z,80.30
2022-10-26T13:50:05.878Z,80.00
2022-10-26T13:52:41.100Z,80.30
2022-10-26T13:55:18.546Z,80.20
2022-10-26T13:58:16.477Z,80.00
2022-10-26T14:01:05.666Z,80.00
2022-10-26T14:03:34.814Z,80.20
2022-10-26T14:06:07.682Z,80.10
2022-10-26T14:08:38.373Z,80.00
2022-10-26T14:11:07.597Z,79.60
2022-10-26T14:13:41.707Z,79.60
2022-10-26T14:16:14.379Z,79.10
2022-10-26T14:18:47.337Z,79.40
2022-10-26T14:21:20.180Z,79.50
2022-10-26T14:23:55.828Z,79.50
2022-10-26T14:26:28.366Z,79.10
2022-10-26T14:28:59.787Z,79.50
2022-10-26T14:31:31.293Z,79.40
2022-10-26T14:34:02.623Z,79.40
2022-10-26T14:36:36.442Z,79.40
2022-10-26T14:39:13.312Z,79.70
2022-10-26T14:41:43.084Z,80.30
2022-10-26T14:44:20.540Z,80.10
2022-10-26T14:46:50.088Z,80.30
2022-10-26T14:49:22.795Z,80.10
2022-10-26T14:51:58.703Z,80.10
2022-10-26T14:54:32.317Z,80.00
2022-10-26T14:57:08.681Z,79.40
2022-10-26T14:59:38.291Z,78.70
2022-10-26T15:02:19.640Z,79.10
2022-10-26T15:05:01.219Z,79.90
2022-10-26T15:07:39.872Z,79.60
2022-10-26T15:10:50.316Z,80.20
2022-10-26T15:13:29.987Z,80.40
2022-10-26T15:16:18.137Z,79.80
2022-10-26T15:18:51.274Z,79.60
2022-10-26T15:21:27.364Z,79.60
2022-10-26T15:23:58.713Z,79.90
2022-10-26T15:26:30.822Z,79.70
2022-10-26T15:29:00.182Z,80.10
2022-10-26T15:31:35.301Z,78.80
2022-10-26T15:34:17.219Z,79.10
2022-10-26T15:36:46.861Z,79.00
2022-10-26T15:39:16.427Z,78.80
2022-10-26T15:41:50.337Z,78.50
2022-10-26T15:44:23.193Z,79.80
2022-10-26T15:46:53.017Z,79.50
2022-10-26T15:49:23.310Z,79.50
2022-10-26T15:51:52.936Z,78.90
2022-10-26T15:54:22.398Z,78.70
2022-10-26T15:56:53.532Z,79.20
2022-10-26T15:59:23.133Z,79.30
2022-10-26T16:01:53.666Z,79.50
2022-10-26T16:04:23.866Z,79.40
2022-10-26T16:06:54.573Z,79.50
2022-10-26T16:09:24.706Z,79.40
2022-10-26T16:11:56.184Z,79.20
2022-10-26T16:14:30.035Z,78.70
2022-10-26T16:17:05.253Z,79.40
2022-10-26T16:19:36.006Z,80.20
2022-10-26T16:22:06.239Z,79.40
2022-10-26T16:24:35.839Z,79.00
2022-10-26T16:27:07.243Z,79.30
2022-10-26T16:29:36.577Z,79.20
2022-10-26T16:32:06.156Z,79.10
2022-10-26T16:34:35.747Z,79.80
2022-10-26T16:37:05.501Z,78.80
2022-10-26T16:39:34.900Z,78.20
2022-10-26T16:42:06.929Z,77.90
2022-10-26T16:44:38.018Z,79.20
2022-10-26T16:47:07.627Z,78.40
2022-10-26T16:49:37.045Z,78.30
2022-10-26T16:52:06.563Z,77.90
2022-10-26T16:54:36.096Z,77.90
2022-10-26T16:57:07.080Z,77.90
2022-10-26T16:59:36.708Z,77.40
2022-10-26T17:02:06.398Z,77.60
2022-10-26T17:04:35.933Z,78.20
2022-10-26T17:07:05.466Z,78.30
2022-10-26T17:09:35.135Z,78.80
2022-10-26T17:12:07.048Z,79.00
2022-10-26T17:14:36.370Z,79.80
2022-10-26T17:17:05.879Z,78.30
2022-10-26T17:19:36.006Z,78.70
2022-10-26T17:22:08.058Z,78.30
2022-10-26T17:24:38.566Z,78.90
2022-10-26T17:27:09.434Z,79.60
2022-10-26T17:29:38.899Z,79.30
2022-10-26T17:32:08.442Z,79.20
2022-10-26T17:34:37.790Z,79.20
2022-10-26T17:37:07.243Z,79.70
2022-10-26T17:39:36.641Z,78.90
2022-10-26T17:42:06.269Z,79.80
2022-10-26T17:44:39.168Z,79.50
2022-10-26T17:47:09.925Z,79.50
2022-10-26T17:49:39.444Z,79.20
2022-10-26T17:52:08.881Z,79.80
2022-10-26T17:54:38.483Z,79.90
2022-10-26T17:57:07.996Z,80.10
2022-10-26T17:59:39.047Z,79.40
2022-10-26T18:02:08.771Z,79.20
2022-10-26T18:04:38.392Z,79.00
2022-10-26T18:07:07.873Z,78.60
2022-10-26T18:09:37.219Z,78.90
2022-10-26T18:12:07.376Z,78.40
2022-10-26T18:14:38.166Z,79.60
2022-10-26T18:17:07.781Z,78.60
2022-10-26T18:19:37.418Z,79.00
2022-10-26T18:22:07.142Z,79.60
2022-10-26T18:24:36.868Z,79.50
2022-10-26T18:27:06.505Z,79.40
2022-10-26T18:29:38.886Z,79.10
2022-10-26T18:32:10.929Z,79.60
2022-10-26T18:34:40.558Z,79.40
2022-10-26T18:37:10.241Z,79.70
2022-10-26T18:39:39.598Z,79.70
2022-10-26T18:42:09.103Z,79.80
2022-10-26T18:44:38.748Z,79.70
2022-10-26T18:47:08.183Z,79.60
2022-10-26T18:49:41.827Z,79.40
2022-10-26T18:52:11.340Z,79.80
2022-10-26T18:54:41.166Z,79.40
2022-10-26T18:57:10.878Z,80.10
2022-10-26T18:59:40.482Z,79.50
2022-10-26T19:02:15.840Z,79.60
2022-10-26T19:04:46.772Z,80.60
2022-10-26T19:07:16.186Z,79.70
2022-10-26T19:09:45.883Z,79.60
2022-10-26T19:12:15.643Z,80.00
2022-10-26T19:14:45.126Z,79.30
2022-10-26T19:17:14.908Z,79.00
2022-10-26T19:19:45.847Z,79.20
2022-10-26T19:22:15.735Z,79.90
2022-10-26T19:24:47.588Z,79.00
2022-10-26T19:29:51.845Z,79.00
2022-10-26T19:32:21.325Z,79.50
2022-10-26T19:34:52.313Z,78.70
2022-10-26T19:37:23.668Z,79.90
2022-10-26T19:39:55.897Z,79.10
2022-10-26T19:42:25.843Z,79.60
2022-10-26T19:44:55.749Z,80.40
2022-10-26T19:47:25.460Z,80.10
2022-10-26T19:49:56.335Z,79.50
2022-10-26T19:52:26.288Z,79.80
2022-10-26T19:54:56.286Z,79.90
2022-10-26T19:57:26.558Z,80.20
2022-10-26T19:59:56.316Z,80.20
2022-10-26T20:02:26.230Z,80.30
2022-10-26T20:05:15.866Z,80.30
2022-10-26T20:08:04.045Z,79.80
2022-10-26T20:10:56.163Z,79.60
2022-10-26T20:13:46.082Z,80.20
2022-10-26T20:16:34.921Z,79.80
2022-10-26T20:19:23.332Z,78.80
2022-10-26T20:22:15.469Z,79.30
2022-10-26T20:25:03.750Z,79.50
2022-10-26T20:27:52.101Z,78.70
2022-10-26T20:30:42.118Z,78.80
2022-10-26T20:33:33.081Z,79.10
2022-10-26T20:36:21.640Z,81.20
2022-10-26T20:39:12.313Z,79.70
2022-10-26T20:42:01.293Z,80.30
2022-10-26T20:44:53.133Z,80.00
2022-10-26T20:47:42.039Z,80.30
2022-10-26T20:50:32.110Z,79.70
2022-10-26T20:54:39.824Z,79.20
2022-10-26T20:58:35.253Z,81.00
2022-10-26T21:01:30.171Z,81.00
2022-10-26T21:05:08.453Z,80.50
2022-10-26T21:08:50.784Z,80.60
2022-10-26T21:14:43.835Z,80.90
2022-10-26T21:18:11.363Z,80.80
2022-10-26T21:22:08.867Z,81.40
2022-10-26T21:26:04.441Z,81.20
2022-10-26T21:29:13.039Z,81.00
2022-10-26T21:33:05.605Z,80.90
2022-10-26T21:41:10.597Z,81.20
2022-10-26T21:44:09.644Z,81.70
2022-10-26T21:47:02.165Z,80.90
2022-10-26T21:49:57.963Z,80.60
2022-10-26T21:53:12.177Z,80.70
2022-10-26T21:56:10.728Z,81.50
2022-10-26T21:59:22.467Z,81.40
2022-10-26T22:02:13.723Z,81.20
2022-10-26T22:10:00.301Z,81.40
2022-10-26T22:14:14.718Z,81.90
2022-10-26T22:17:39.715Z,82.10
2022-10-26T22:21:25.122Z,81.70
2022-10-26T22:28:26.029Z,80.70
2022-10-26T22:31:48.842Z,80.80
2022-10-26T22:38:33.460Z,80.80
2022-10-26T22:44:46.931Z,80.90
2022-10-26T22:47:41.131Z,80.50
2022-10-26T22:50:32.928Z,80.50
2022-10-26T22:53:48.034Z,80.50
2022-10-26T22:57:06.971Z,81.10
2022-10-26T23:03:51.413Z,80.70
2022-10-26T23:06:56.573Z,80.70
2022-10-26T23:10:15.568Z,80.90
2022-10-26T23:13:19.098Z,80.90
2022-10-26T23:16:32.657Z,80.50
2022-10-26T23:19:30.147Z,80.60
2022-10-26T23:22:54.756Z,80.40
2022-10-26T23:26:15.085Z,80.50
2022-10-26T23:29:06.926Z,81.60
2022-10-26T23:31:55.280Z,81.70
2022-10-26T23:34:46.939Z,82.00
2022-10-26T23:41:03.166Z,81.20
2022-10-26T23:44:16.261Z,81.20
2022-10-26T23:47:07.345Z,80.90
2022-10-26T23:49:56.002Z,81.00
2022-10-26T23:53:02.364Z,81.20
2022-10-26T23:55:56.546Z,81.50
2022-10-26T23:58:44.490Z,81.30
